Time;durP1;ratioP1;P1;durP2;ratioP2;P2;SDS_P1;SDS_P2;PMS_P1;PMS_P2;Temp;Humidity;BMP_temperature;BMP_pressure;BME280_temperature;BME280_humidity;BME280_pressure;Samples;Min_cycle;Max_cycle;Signal;HPM_P1;HPM_P2
2023/01/08 00:00:44;;;;;;;18.98;12.07;;;;;;;;;;5065539;28;20047;-77
2023/01/08 00:03:10;;;;;;;17.13;11.50;;;;;;;;;;5058084;28;20036;-76
2023/01/08 00:05:36;;;;;;;18.10;11.93;;;;;;;;;;5054673;28;20140;-77
2023/01/08 00:08:02;;;;;;;15.95;11.48;;;;;;;;;;5043626;28;20061;-76
2023/01/08 00:10:28;;;;;;;17.92;11.10;;;;;;;;;;5048276;28;20041;-76
2023/01/08 00:12:55;;;;;;;16.83;9.45;;;;;;;;;;5040650;28;20136;-76
2023/01/08 00:15:21;;;;;;;14.32;8.00;;;;;;;;;;5043347;28;20145;-77
2023/01/08 00:17:47;;;;;;;15.80;9.07;;;;;;;;;;5038806;28;20056;-76
2023/01/08 00:20:15;;;;;;;15.95;9.18;;;;;;;;;;5028915;28;20503;-76
2023/01/08 00:22:41;;;;;;;14.60;8.80;;;;;;;;;;5036540;28;20768;-76
2023/01/08 00:25:07;;;;;;;18.85;10.65;;;;;;;;;;5044584;28;20083;-76
2023/01/08 00:27:33;;;;;;;24.95;14.77;;;;;;;;;;5045079;28;20048;-76
2023/01/08 00:29:59;;;;;;;20.90;13.15;;;;;;;;;;5045936;28;20037;-76
2023/01/08 00:32:25;;;;;;;22.42;12.40;;;;;;;;;;5035171;28;20530;-76
2023/01/08 00:34:53;;;;;;;17.95;12.05;;;;;;;;;;5039014;28;20041;-76
2023/01/08 00:37:19;;;;;;;16.05;9.18;;;;;;;;;;5039846;28;20018;-76
2023/01/08 00:39:46;;;;;;;14.68;9.15;;;;;;;;;;5036648;28;20044;-77
2023/01/08 00:42:12;;;;;;;16.73;9.45;;;;;;;;;;5043565;28;20036;-76
2023/01/08 00:44:38;;;;;;;19.05;10.88;;;;;;;;;;5042096;28;20037;-76
2023/01/08 00:47:04;;;;;;;16.92;9.63;;;;;;;;;;5044901;28;20188;-76
2023/01/08 00:49:30;;;;;;;15.98;9.25;;;;;;;;;;5035924;28;20904;-76
2023/01/08 00:51:56;;;;;;;15.60;9.85;;;;;;;;;;5042001;28;20067;-77
2023/01/08 00:54:22;;;;;;;18.35;8.90;;;;;;;;;;5036341;28;20032;-77
2023/01/08 00:56:48;;;;;;;16.83;10.02;;;;;;;;;;5036908;28;20018;-76
2023/01/08 00:59:14;;;;;;;11.38;7.10;;;;;;;;;;5040685;28;20072;-76
2023/01/08 01:01:40;;;;;;;13.77;5.18;;;;;;;;;;5043632;28;20517;-76
2023/01/08 01:04:06;;;;;;;11.93;5.97;;;;;;;;;;5046647;28;20045;-76
2023/01/08 01:06:32;;;;;;;12.65;7.28;;;;;;;;;;5038761;28;20029;-76
2023/01/08 01:08:58;;;;;;;15.52;8.82;;;;;;;;;;5032216;28;20029;-76
2023/01/08 01:11:25;;;;;;;19.98;11.10;;;;;;;;;;5041769;28;20029;-76
2023/01/08 01:13:51;;;;;;;13.90;7.95;;;;;;;;;;5048798;28;20075;-76
2023/01/08 01:16:18;;;;;;;14.70;7.68;;;;;;;;;;5044166;28;20666;-76
2023/01/08 01:18:44;;;;;;;10.65;5.43;;;;;;;;;;5045622;28;20871;-76
2023/01/08 01:21:11;;;;;;;9.70;6.30;;;;;;;;;;5047857;28;20946;-76
2023/01/08 01:23:37;;;;;;;10.55;6.07;;;;;;;;;;5032006;28;20036;-76
2023/01/08 01:26:03;;;;;;;9.55;5.13;;;;;;;;;;5040671;28;20459;-76
2023/01/08 01:28:29;;;;;;;8.43;4.63;;;;;;;;;;5041629;28;20025;-76
2023/01/08 01:30:56;;;;;;;14.23;6.53;;;;;;;;;;5045308;28;20384;-76
2023/01/08 01:33:22;;;;;;;15.15;8.85;;;;;;;;;;5038394;28;20567;-76
2023/01/08 01:35:48;;;;;;;14.68;7.85;;;;;;;;;;5047946;28;20036;-76
2023/01/08 01:38:14;;;;;;;13.95;7.55;;;;;;;;;;5050648;28;20021;-77
2023/01/08 01:40:41;;;;;;;12.18;7.15;;;;;;;;;;5039341;28;20104;-76
2023/01/08 01:43:11;;;;;;;8.63;4.32;;;;;;;;;;5042104;28;20568;-77
2023/01/08 01:45:37;;;;;;;8.77;4.72;;;;;;;;;;5038418;28;20072;-76
2023/01/08 01:48:06;;;;;;;10.90;4.60;;;;;;;;;;5050393;28;20444;-76
2023/01/08 01:50:36;;;;;;;10.60;5.32;;;;;;;;;;5045119;28;20136;-76
2023/01/08 01:53:08;;;;;;;12.98;6.63;;;;;;;;;;5043675;28;20458;-77
2023/01/08 01:55:35;;;;;;;12.70;6.03;;;;;;;;;;5045230;28;20044;-77
2023/01/08 01:58:04;;;;;;;10.23;4.90;;;;;;;;;;5037970;28;20071;-76
2023/01/08 02:00:31;;;;;;;10.65;6.38;;;;;;;;;;5039543;28;20034;-76
2023/01/08 02:02:57;;;;;;;15.75;9.80;;;;;;;;;;5048733;28;20029;-76
2023/01/08 02:05:28;;;;;;;11.27;5.25;;;;;;;;;;5046181;28;20039;-76
2023/01/08 02:07:57;;;;;;;6.10;2.38;;;;;;;;;;5047324;28;20890;-76
2023/01/08 02:10:31;;;;;;;5.63;2.45;;;;;;;;;;5047085;28;20066;-76
2023/01/08 02:13:00;;;;;;;7.75;2.60;;;;;;;;;;5042644;28;20029;-75
2023/01/08 02:15:30;;;;;;;10.30;6.53;;;;;;;;;;5042073;28;20140;-76
2023/01/08 02:17:56;;;;;;;14.25;9.85;;;;;;;;;;5045589;28;20076;-76
2023/01/08 02:20:42;;;;;;;15.65;10.32;;;;;;;;;;5043953;28;20034;-76
2023/01/08 02:23:08;;;;;;;10.82;5.45;;;;;;;;;;5045038;28;20721;-76
2023/01/08 02:25:34;;;;;;;15.05;8.57;;;;;;;;;;5039057;28;20045;-76
2023/01/08 02:28:01;;;;;;;19.55;14.05;;;;;;;;;;5029918;28;20361;-76
2023/01/08 02:30:28;;;;;;;14.95;9.75;;;;;;;;;;5046214;28;20041;-76
2023/01/08 02:32:54;;;;;;;10.48;6.05;;;;;;;;;;5044548;28;20529;-76
2023/01/08 02:35:20;;;;;;;10.35;5.97;;;;;;;;;;5048332;28;20037;-76
2023/01/08 02:37:46;;;;;;;6.68;3.83;;;;;;;;;;5048910;28;20033;-76
2023/01/08 02:40:20;;;;;;;5.70;2.17;;;;;;;;;;5036998;28;20361;-76
2023/01/08 02:42:55;;;;;;;5.85;2.17;;;;;;;;;;5047360;28;20059;-76
2023/01/08 02:45:36;;;;;;;6.70;2.40;;;;;;;;;;5048438;28;20132;-76
2023/01/08 02:48:21;;;;;;;5.35;2.17;;;;;;;;;;5049507;28;20024;-76
2023/01/08 02:50:56;;;;;;;6.65;2.15;;;;;;;;;;5037179;28;20072;-76
2023/01/08 02:53:24;;;;;;;5.22;1.77;;;;;;;;;;5036529;28;20029;-77
2023/01/08 02:55:52;;;;;;;6.22;2.10;;;;;;;;;;5038780;28;20045;-76
2023/01/08 02:58:18;;;;;;;6.22;2.22;;;;;;;;;;5047076;28;20043;-77
2023/01/08 03:00:46;;;;;;;5.50;2.10;;;;;;;;;;5040311;28;20038;-76
2023/01/08 03:03:23;;;;;;;4.40;2.08;;;;;;;;;;5046424;28;20032;-76
2023/01/08 03:05:51;;;;;;;5.30;1.90;;;;;;;;;;5035692;28;20045;-76
2023/01/08 03:08:18;;;;;;;6.80;2.63;;;;;;;;;;5031164;28;20742;-76
2023/01/08 03:10:46;;;;;;;5.30;2.22;;;;;;;;;;5044790;28;20602;-77
2023/01/08 03:13:17;;;;;;;5.15;1.73;;;;;;;;;;5035180;28;20033;-76
2023/01/08 03:15:47;;;;;;;6.80;2.33;;;;;;;;;;5043819;28;20468;-76
2023/01/08 03:18:15;;;;;;;4.53;2.20;;;;;;;;;;5032369;28;20057;-77
2023/01/08 03:20:43;;;;;;;5.15;2.30;;;;;;;;;;5047284;28;20048;-76
2023/01/08 03:23:10;;;;;;;4.88;1.88;;;;;;;;;;5048130;28;20391;-77
2023/01/08 03:25:39;;;;;;;6.47;2.03;;;;;;;;;;5048888;28;20047;-77
2023/01/08 03:28:09;;;;;;;5.35;2.20;;;;;;;;;;5031984;28;20033;-76
2023/01/08 03:30:35;;;;;;;7.53;2.50;;;;;;;;;;5047823;28;20036;-76
2023/01/08 03:33:02;;;;;;;6.78;2.90;;;;;;;;;;5047368;28;20024;-77
2023/01/08 03:35:29;;;;;;;5.82;2.28;;;;;;;;;;5037404;28;20041;-76
2023/01/08 03:38:12;;;;;;;5.03;2.25;;;;;;;;;;5042079;28;20075;-76
2023/01/08 03:40:40;;;;;;;5.88;2.22;;;;;;;;;;5043158;28;20033;-76
2023/01/08 03:43:06;;;;;;;3.88;1.98;;;;;;;;;;5045422;28;20044;-76
2023/01/08 03:45:32;;;;;;;5.60;2.58;;;;;;;;;;5037159;28;20044;-76
2023/01/08 03:47:59;;;;;;;4.70;1.98;;;;;;;;;;5040355;28;20032;-76
2023/01/08 03:50:26;;;;;;;4.20;2.10;;;;;;;;;;5038274;28;20135;-76
2023/01/08 03:52:52;;;;;;;5.28;2.13;;;;;;;;;;5046027;28;20035;-77
2023/01/08 03:55:19;;;;;;;4.97;1.83;;;;;;;;;;5043024;28;20769;-77
2023/01/08 03:57:45;;;;;;;5.45;2.53;;;;;;;;;;5029328;28;20827;-77
2023/01/08 04:00:11;;;;;;;5.78;2.75;;;;;;;;;;5042889;28;20138;-76
2023/01/08 04:02:37;;;;;;;6.93;2.60;;;;;;;;;;5043211;28;20041;-76
2023/01/08 04:05:03;;;;;;;4.85;2.20;;;;;;;;;;5038093;28;20042;-76
2023/01/08 04:07:29;;;;;;;6.75;3.53;;;;;;;;;;5046976;28;20112;-76
2023/01/08 04:09:55;;;;;;;7.57;3.20;;;;;;;;;;5031984;28;20104;-76
2023/01/08 04:12:23;;;;;;;8.23;3.47;;;;;;;;;;5031453;28;20063;-77
2023/01/08 04:14:49;;;;;;;7.00;3.80;;;;;;;;;;5045281;28;20056;-76
2023/01/08 04:17:15;;;;;;;5.93;2.97;;;;;;;;;;5046430;28;20112;-76
2023/01/08 04:19:41;;;;;;;5.95;3.45;;;;;;;;;;5044730;28;20148;-76
2023/01/08 04:22:09;;;;;;;5.60;3.20;;;;;;;;;;5032069;28;20130;-77
2023/01/08 04:24:35;;;;;;;7.10;2.85;;;;;;;;;;5035352;28;20468;-76
2023/01/08 04:27:01;;;;;;;4.97;2.38;;;;;;;;;;5041425;28;20041;-76
2023/01/08 04:29:27;;;;;;;6.95;2.30;;;;;;;;;;5033629;28;20134;-76
2023/01/08 04:31:53;;;;;;;4.88;1.98;;;;;;;;;;5047107;28;20116;-76
2023/01/08 04:34:19;;;;;;;6.20;2.03;;;;;;;;;;5046926;28;20033;-76
2023/01/08 04:36:45;;;;;;;3.97;1.75;;;;;;;;;;5037590;28;20029;-76
2023/01/08 04:39:11;;;;;;;3.28;1.60;;;;;;;;;;5040855;28;20033;-76
2023/01/08 04:41:37;;;;;;;3.95;1.77;;;;;;;;;;5042743;28;20091;-76
2023/01/08 04:44:03;;;;;;;8.25;2.30;;;;;;;;;;5044751;28;20490;-76
2023/01/08 04:46:29;;;;;;;5.07;2.00;;;;;;;;;;5038746;28;20034;-76
2023/01/08 04:48:55;;;;;;;5.00;2.45;;;;;;;;;;5044776;28;20044;-76
2023/01/08 04:51:22;;;;;;;4.65;1.88;;;;;;;;;;5038650;28;20529;-76
2023/01/08 04:53:48;;;;;;;5.57;2.30;;;;;;;;;;5044178;28;20033;-77
2023/01/08 04:56:14;;;;;;;5.60;2.10;;;;;;;;;;5043884;28;20035;-76
2023/01/08 04:58:40;;;;;;;6.47;1.83;;;;;;;;;;5040675;28;20476;-76
2023/01/08 05:01:18;;;;;;;4.80;2.00;;;;;;;;;;5042879;28;20048;-76
2023/01/08 05:03:44;;;;;;;5.00;2.28;;;;;;;;;;5030594;28;20487;-76
2023/01/08 05:06:10;;;;;;;4.50;2.15;;;;;;;;;;5046486;28;20407;-76
2023/01/08 05:08:36;;;;;;;7.53;2.78;;;;;;;;;;5045620;28;20112;-76
2023/01/08 05:11:03;;;;;;;6.65;2.65;;;;;;;;;;5050794;28;20074;-77
2023/01/08 05:13:29;;;;;;;6.43;2.60;;;;;;;;;;5035768;28;20075;-76
2023/01/08 05:15:58;;;;;;;7.50;2.70;;;;;;;;;;5047630;28;20045;-76
2023/01/08 05:18:24;;;;;;;5.45;2.08;;;;;;;;;;5051089;28;20057;-76
2023/01/08 05:20:50;;;;;;;6.25;2.47;;;;;;;;;;5045872;28;20447;-76
2023/01/08 05:23:16;;;;;;;4.93;2.80;;;;;;;;;;5043438;28;20041;-77
2023/01/08 05:25:42;;;;;;;5.43;2.33;;;;;;;;;;5039806;28;20041;-76
2023/01/08 05:28:08;;;;;;;6.75;2.63;;;;;;;;;;5050021;28;20040;-76
2023/01/08 05:30:33;;;;;;;4.30;2.33;;;;;;;;;;5034558;28;20034;-76
2023/01/08 05:33:00;;;;;;;7.38;3.67;;;;;;;;;;5044575;28;20029;-76
2023/01/08 05:35:26;;;;;;;6.60;3.35;;;;;;;;;;5043386;28;20036;-76
2023/01/08 05:37:52;;;;;;;5.55;3.13;;;;;;;;;;5035633;28;20021;-76
2023/01/08 05:40:18;;;;;;;7.53;3.38;;;;;;;;;;5049262;28;20035;-76
2023/01/08 05:42:44;;;;;;;6.43;2.47;;;;;;;;;;5043421;28;20040;-76
2023/01/08 05:45:10;;;;;;;5.60;2.65;;;;;;;;;;5048864;28;20044;-76
2023/01/08 05:47:36;;;;;;;9.02;3.42;;;;;;;;;;5047848;28;20044;-77
2023/01/08 05:50:02;;;;;;;6.13;3.53;;;;;;;;;;5049216;28;20036;-76
2023/01/08 05:52:28;;;;;;;8.10;3.88;;;;;;;;;;5033674;28;20863;-76
2023/01/08 05:54:54;;;;;;;7.03;3.53;;;;;;;;;;5046901;28;20029;-76
2023/01/08 05:57:20;;;;;;;5.38;2.88;;;;;;;;;;5050258;28;20143;-77
2023/01/08 05:59:46;;;;;;;7.07;3.47;;;;;;;;;;5049747;28;20167;-76
2023/01/08 06:02:12;;;;;;;8.68;3.08;;;;;;;;;;5048870;28;20029;-76
2023/01/08 06:04:38;;;;;;;7.93;3.28;;;;;;;;;;5049791;28;20391;-76
2023/01/08 06:07:04;;;;;;;6.93;3.65;;;;;;;;;;5045089;28;20468;-76
2023/01/08 06:09:30;;;;;;;6.82;3.40;;;;;;;;;;5047637;28;20048;-76
2023/01/08 06:11:57;;;;;;;9.43;3.10;;;;;;;;;;5047564;28;20040;-76
2023/01/08 06:14:23;;;;;;;5.05;3.15;;;;;;;;;;5049254;28;20033;-76
2023/01/08 06:16:49;;;;;;;6.22;3.28;;;;;;;;;;5044088;28;20147;-76
2023/01/08 06:19:17;;;;;;;7.82;2.92;;;;;;;;;;5034354;28;20132;-76
2023/01/08 06:21:43;;;;;;;7.68;3.35;;;;;;;;;;5044863;28;20480;-77
2023/01/08 06:24:09;;;;;;;7.07;3.28;;;;;;;;;;5039555;28;20104;-76
2023/01/08 06:26:35;;;;;;;7.10;3.47;;;;;;;;;;5045753;28;20133;-76
2023/01/08 06:29:01;;;;;;;8.13;3.92;;;;;;;;;;5035165;28;20595;-76
2023/01/08 06:31:27;;;;;;;6.65;3.60;;;;;;;;;;5038401;28;20048;-76
2023/01/08 06:33:53;;;;;;;7.10;3.78;;;;;;;;;;5047926;28;20096;-76
2023/01/08 06:36:19;;;;;;;6.43;3.25;;;;;;;;;;5047965;28;20064;-77
2023/01/08 06:38:45;;;;;;;10.13;4.22;;;;;;;;;;5043832;28;20805;-76
2023/01/08 06:41:11;;;;;;;7.25;3.53;;;;;;;;;;5044512;28;20028;-77
2023/01/08 06:43:38;;;;;;;5.82;3.28;;;;;;;;;;5043633;28;20911;-76
2023/01/08 06:46:05;;;;;;;6.80;3.20;;;;;;;;;;5041415;28;20399;-76
2023/01/08 06:48:31;;;;;;;7.43;3.53;;;;;;;;;;5049098;28;20144;-76
2023/01/08 06:50:59;;;;;;;12.38;3.75;;;;;;;;;;5047657;28;20128;-77
2023/01/08 06:53:25;;;;;;;8.48;4.07;;;;;;;;;;5038707;28;20040;-76
2023/01/08 06:55:55;;;;;;;7.32;3.75;;;;;;;;;;5048283;28;20562;-76
2023/01/08 06:58:22;;;;;;;10.00;4.30;;;;;;;;;;5043252;28;20094;-76
2023/01/08 07:00:49;;;;;;;9.52;5.25;;;;;;;;;;5038047;28;20087;-76
2023/01/08 07:03:15;;;;;;;8.80;5.05;;;;;;;;;;5045991;28;20028;-76
2023/01/08 07:05:41;;;;;;;10.68;5.05;;;;;;;;;;5047127;28;20045;-77
2023/01/08 07:08:12;;;;;;;6.78;3.50;;;;;;;;;;5044001;28;20131;-76
2023/01/08 07:10:38;;;;;;;7.88;3.95;;;;;;;;;;5048472;28;20032;-76
2023/01/08 07:13:06;;;;;;;11.38;5.35;;;;;;;;;;5047569;28;20032;-76
2023/01/08 07:15:32;;;;;;;8.13;3.80;;;;;;;;;;5041694;28;20120;-76
2023/01/08 07:17:58;;;;;;;8.35;3.60;;;;;;;;;;5045733;28;20400;-76
2023/01/08 07:20:24;;;;;;;9.38;4.15;;;;;;;;;;5046292;28;20052;-77
2023/01/08 07:22:50;;;;;;;8.60;3.80;;;;;;;;;;5047819;28;20750;-77
2023/01/08 07:25:16;;;;;;;7.38;3.70;;;;;;;;;;5046408;28;20116;-76
2023/01/08 07:27:42;;;;;;;16.70;6.07;;;;;;;;;;5040030;28;20033;-76
2023/01/08 07:30:09;;;;;;;15.73;6.15;;;;;;;;;;5044853;28;20041;-76
2023/01/08 07:32:35;;;;;;;11.95;5.82;;;;;;;;;;5047628;28;20032;-76
2023/01/08 07:35:00;;;;;;;9.10;5.88;;;;;;;;;;5040217;28;20041;-76
2023/01/08 07:37:27;;;;;;;13.07;5.22;;;;;;;;;;5030089;28;20108;-76
2023/01/08 07:39:53;;;;;;;10.38;5.43;;;;;;;;;;5038315;28;20035;-76
2023/01/08 07:42:19;;;;;;;11.82;6.05;;;;;;;;;;5045679;28;20116;-76
2023/01/08 07:44:45;;;;;;;8.13;5.15;;;;;;;;;;5045580;28;20511;-76
2023/01/08 07:47:11;;;;;;;10.77;4.07;;;;;;;;;;5043598;28;20479;-76
2023/01/08 07:49:37;;;;;;;13.50;4.55;;;;;;;;;;5037109;28;20257;-77
2023/01/08 07:52:03;;;;;;;12.25;4.00;;;;;;;;;;5032902;28;20109;-77
2023/01/08 07:54:29;;;;;;;8.23;3.65;;;;;;;;;;5046569;28;20033;-76
2023/01/08 07:56:55;;;;;;;10.02;4.85;;;;;;;;;;5037270;28;20033;-76
2023/01/08 07:59:21;;;;;;;17.05;7.80;;;;;;;;;;5046722;28;20053;-76
2023/01/08 08:01:47;;;;;;;12.55;7.15;;;;;;;;;;5038200;28;20100;-76
2023/01/08 08:04:16;;;;;;;12.73;7.10;;;;;;;;;;5044824;28;20336;-77
2023/01/08 08:06:42;;;;;;;16.50;9.25;;;;;;;;;;5046370;28;20025;-76
2023/01/08 08:09:08;;;;;;;15.65;9.05;;;;;;;;;;5040965;28;20047;-76
2023/01/08 08:11:34;;;;;;;15.20;8.85;;;;;;;;;;5040317;28;20028;-76
2023/01/08 08:14:00;;;;;;;8.30;2.00;;;;;;;;;;5042708;28;20373;-77
2023/01/08 08:16:26;;;;;;;7.55;3.88;;;;;;;;;;5045622;28;20043;-76
2023/01/08 08:18:52;;;;;;;9.35;4.88;;;;;;;;;;5047168;28;20040;-76
2023/01/08 08:21:18;;;;;;;14.48;9.48;;;;;;;;;;5047125;28;20098;-77
2023/01/08 08:23:44;;;;;;;15.35;10.35;;;;;;;;;;5050795;28;20044;-76
2023/01/08 08:26:11;;;;;;;17.98;11.63;;;;;;;;;;5046637;28;20033;-76
2023/01/08 08:28:37;;;;;;;11.32;7.25;;;;;;;;;;5045571;28;20033;-76
2023/01/08 08:31:03;;;;;;;10.13;6.47;;;;;;;;;;5046194;28;20055;-76
2023/01/08 08:33:29;;;;;;;5.78;3.03;;;;;;;;;;5039652;28;20037;-76
2023/01/08 08:35:55;;;;;;;5.13;2.10;;;;;;;;;;5040647;28;20547;-76
2023/01/08 08:38:21;;;;;;;9.23;5.13;;;;;;;;;;5033846;28;20068;-76
2023/01/08 08:40:47;;;;;;;11.85;6.28;;;;;;;;;;5042137;28;20036;-77
2023/01/08 08:43:13;;;;;;;11.27;6.28;;;;;;;;;;5039077;28;20045;-75
2023/01/08 08:45:39;;;;;;;12.35;8.02;;;;;;;;;;5049703;28;20045;-76
2023/01/08 08:48:06;;;;;;;16.08;10.57;;;;;;;;;;5044975;28;20714;-76
2023/01/08 08:50:32;;;;;;;10.30;6.47;;;;;;;;;;5048734;28;20033;-76
2023/01/08 08:52:59;;;;;;;9.43;3.72;;;;;;;;;;5040662;28;20036;-76
2023/01/08 08:55:25;;;;;;;7.97;4.75;;;;;;;;;;5036868;28;20120;-76
2023/01/08 08:57:51;;;;;;;9.45;3.97;;;;;;;;;;5044527;28;20063;-76
2023/01/08 09:00:17;;;;;;;7.03;1.80;;;;;;;;;;5042811;28;20161;-76
2023/01/08 09:02:43;;;;;;;5.05;1.00;;;;;;;;;;5047164;28;20685;-76
2023/01/08 09:05:10;;;;;;;5.43;1.90;;;;;;;;;;5042817;28;20084;-76
2023/01/08 09:07:36;;;;;;;3.63;1.10;;;;;;;;;;5044945;28;20018;-76
2023/01/08 09:10:03;;;;;;;2.00;0.73;;;;;;;;;;5040694;28;20380;-76
2023/01/08 09:12:29;;;;;;;3.00;1.05;;;;;;;;;;5046876;28;20032;-75
2023/01/08 09:14:55;;;;;;;3.90;2.00;;;;;;;;;;5046279;28;20151;-76
2023/01/08 09:17:22;;;;;;;6.20;3.25;;;;;;;;;;5037410;28;20806;-76
2023/01/08 09:19:48;;;;;;;8.77;5.28;;;;;;;;;;5044812;28;20098;-76
2023/01/08 09:22:14;;;;;;;15.43;9.95;;;;;;;;;;5043425;28;20825;-76
2023/01/08 09:24:40;;;;;;;19.23;14.52;;;;;;;;;;5045594;28;20056;-77
2023/01/08 09:27:05;;;;;;;15.65;12.55;;;;;;;;;;5039907;28;20021;-76
2023/01/08 09:29:32;;;;;;;18.13;15.27;;;;;;;;;;5047772;28;20041;-76
2023/01/08 09:31:59;;;;;;;8.93;2.97;;;;;;;;;;5037856;28;20037;-76
2023/01/08 09:34:25;;;;;;;9.45;6.72;;;;;;;;;;5045593;28;20034;-77
2023/01/08 09:36:51;;;;;;;10.70;7.03;;;;;;;;;;5043538;28;20713;-76
2023/01/08 09:39:17;;;;;;;22.85;15.88;;;;;;;;;;5049778;28;20040;-76
2023/01/08 09:41:45;;;;;;;12.15;8.13;;;;;;;;;;5046736;28;20024;-77
2023/01/08 09:44:14;;;;;;;11.52;7.90;;;;;;;;;;5045626;28;20041;-76
2023/01/08 09:46:41;;;;;;;12.30;8.38;;;;;;;;;;5045278;28;20061;-76
2023/01/08 09:49:09;;;;;;;12.90;7.80;;;;;;;;;;5042961;28;20041;-76
2023/01/08 09:51:37;;;;;;;13.75;8.68;;;;;;;;;;5043779;28;20468;-76
2023/01/08 09:54:06;;;;;;;12.10;8.20;;;;;;;;;;5045440;28;20079;-76
2023/01/08 09:56:33;;;;;;;14.23;7.22;;;;;;;;;;5047663;28;20045;-76
2023/01/08 09:59:00;;;;;;;11.48;7.95;;;;;;;;;;5047738;28;20485;-76
2023/01/08 10:01:28;;;;;;;12.43;9.15;;;;;;;;;;5040473;28;20029;-76
2023/01/08 10:04:03;;;;;;;12.35;7.65;;;;;;;;;;5043445;28;20317;-76
2023/01/08 10:06:30;;;;;;;12.27;8.90;;;;;;;;;;5038476;28;20104;-76
2023/01/08 10:08:56;;;;;;;23.30;16.75;;;;;;;;;;5040517;28;20125;-76
2023/01/08 10:11:23;;;;;;;22.15;14.20;;;;;;;;;;5038885;28;20029;-76
2023/01/08 10:13:52;;;;;;;19.42;15.68;;;;;;;;;;5047334;28;20606;-76
2023/01/08 10:16:21;;;;;;;22.67;14.00;;;;;;;;;;5045134;28;20832;-76
2023/01/08 10:18:47;;;;;;;21.75;15.20;;;;;;;;;;5041109;28;20135;-76
2023/01/08 10:21:14;;;;;;;8.73;4.45;;;;;;;;;;5045323;28;20167;-76
2023/01/08 10:23:50;;;;;;;5.93;2.50;;;;;;;;;;5047551;28;20060;-76
2023/01/08 10:26:27;;;;;;;8.68;3.70;;;;;;;;;;5047782;28;20041;-76
2023/01/08 10:29:05;;;;;;;6.63;3.78;;;;;;;;;;5038772;28;20029;-76
2023/01/08 10:31:31;;;;;;;8.65;5.97;;;;;;;;;;5047609;28;20037;-76
2023/01/08 10:34:07;;;;;;;28.45;19.95;;;;;;;;;;5036327;28;20846;-77
2023/01/08 10:36:38;;;;;;;12.07;7.68;;;;;;;;;;5036463;28;20029;-76
2023/01/08 10:39:04;;;;;;;6.38;3.72;;;;;;;;;;5039369;28;20033;-76
2023/01/08 10:41:31;;;;;;;6.35;1.90;;;;;;;;;;5033058;28;20045;-77
2023/01/08 10:44:05;;;;;;;5.28;2.42;;;;;;;;;;5039969;28;20078;-76
2023/01/08 10:46:34;;;;;;;5.72;1.80;;;;;;;;;;5036398;28;20478;-76
2023/01/08 10:49:01;;;;;;;3.42;1.50;;;;;;;;;;5038578;28;20029;-76
2023/01/08 10:51:28;;;;;;;3.60;1.15;;;;;;;;;;5033376;28;20029;-75
2023/01/08 10:53:55;;;;;;;5.18;1.80;;;;;;;;;;5032233;28;20034;-76
2023/01/08 10:56:24;;;;;;;3.22;1.40;;;;;;;;;;5040922;28;20108;-76
2023/01/08 10:58:51;;;;;;;3.20;1.30;;;;;;;;;;5037106;28;20939;-76
2023/01/08 11:01:24;;;;;;;7.25;4.20;;;;;;;;;;5044264;28;20020;-76
2023/01/08 11:03:52;;;;;;;8.93;4.80;;;;;;;;;;5039606;28;20444;-76
2023/01/08 11:06:39;;;;;;;6.22;2.78;;;;;;;;;;5042583;28;20111;-78
2023/01/08 11:09:19;;;;;;;11.80;6.93;;;;;;;;;;5033904;28;20030;-80
2023/01/08 11:11:45;;;;;;;11.00;6.93;;;;;;;;;;5040117;28;20024;-78
2023/01/08 11:14:29;;;;;;;9.35;5.72;;;;;;;;;;5034710;28;20044;-78
2023/01/08 11:16:55;;;;;;;14.82;10.00;;;;;;;;;;5043572;28;20028;-79
2023/01/08 11:19:32;;;;;;;16.35;10.02;;;;;;;;;;5038168;28;20038;-79
2023/01/08 11:21:59;;;;;;;13.15;7.78;;;;;;;;;;5033866;28;20037;-80
2023/01/08 11:24:31;;;;;;;13.13;8.25;;;;;;;;;;5046702;28;20037;-80
2023/01/08 11:27:09;;;;;;;7.68;4.78;;;;;;;;;;5045403;28;20032;-80
2023/01/08 11:29:54;;;;;;;8.00;1.98;;;;;;;;;;5049030;28;20083;-80
2023/01/08 11:32:32;;;;;;;3.08;1.20;;;;;;;;;;5035948;28;20028;-80
2023/01/08 11:35:09;;;;;;;3.58;1.85;;;;;;;;;;5051590;28;20041;-81
2023/01/08 11:37:36;;;;;;;5.00;2.25;;;;;;;;;;5051748;28;20493;-81
2023/01/08 11:40:02;;;;;;;6.05;2.92;;;;;;;;;;5052064;28;20360;-81
2023/01/08 11:42:44;;;;;;;7.68;4.25;;;;;;;;;;5045423;28;20033;-80
2023/01/08 11:45:26;;;;;;;6.70;3.97;;;;;;;;;;5040741;28;20033;-81
2023/01/08 11:48:11;;;;;;;8.57;4.65;;;;;;;;;;5041614;28;20029;-81
2023/01/08 11:50:43;;;;;;;6.82;4.03;;;;;;;;;;5044555;28;20030;-81
2023/01/08 11:53:12;;;;;;;6.60;3.83;;;;;;;;;;5047818;28;20372;-80
2023/01/08 11:55:47;;;;;;;5.75;2.13;;;;;;;;;;5051466;28;20037;-80
2023/01/08 11:58:13;;;;;;;6.03;3.35;;;;;;;;;;5036812;28;20032;-80
2023/01/08 12:00:42;;;;;;;7.05;2.92;;;;;;;;;;5040361;28;20029;-80
2023/01/08 12:03:17;;;;;;;7.60;3.75;;;;;;;;;;5042126;28;20038;-80
2023/01/08 12:05:46;;;;;;;7.05;3.88;;;;;;;;;;5038226;28;20033;-80
2023/01/08 12:08:12;;;;;;;8.18;5.43;;;;;;;;;;5040167;28;20036;-80
2023/01/08 12:10:44;;;;;;;5.07;2.40;;;;;;;;;;5046637;28;20596;-80
2023/01/08 12:13:16;;;;;;;6.05;2.55;;;;;;;;;;5042648;28;20035;-80
2023/01/08 12:16:00;;;;;;;12.43;6.93;;;;;;;;;;5041589;28;20059;-80
2023/01/08 12:18:44;;;;;;;16.25;7.53;;;;;;;;;;5038565;28;20033;-79
2023/01/08 12:21:10;;;;;;;13.07;7.00;;;;;;;;;;5046023;28;20048;-79
2023/01/08 12:24:02;;;;;;;14.57;8.15;;;;;;;;;;5037870;28;20029;-80
2023/01/08 12:26:28;;;;;;;7.40;3.72;;;;;;;;;;5034550;28;20064;-80
2023/01/08 12:29:05;;;;;;;4.40;1.50;;;;;;;;;;5039999;28;20028;-80
2023/01/08 12:31:44;;;;;;;4.05;1.58;;;;;;;;;;5042737;28;20606;-80
2023/01/08 12:34:16;;;;;;;4.20;1.10;;;;;;;;;;5041270;28;20033;-80
2023/01/08 12:36:45;;;;;;;5.95;1.52;;;;;;;;;;5040337;28;20033;-80
2023/01/08 12:39:32;;;;;;;9.27;4.32;;;;;;;;;;5045635;28;20033;-79
2023/01/08 12:42:05;;;;;;;4.03;1.90;;;;;;;;;;5039197;28;20029;-79
2023/01/08 12:44:32;;;;;;;9.20;4.28;;;;;;;;;;5036933;28;20034;-79
2023/01/08 12:47:02;;;;;;;3.33;1.40;;;;;;;;;;5045149;28;20034;-79
2023/01/08 12:49:32;;;;;;;1.80;0.73;;;;;;;;;;5045297;28;20037;-80
2023/01/08 12:52:07;;;;;;;3.90;1.00;;;;;;;;;;5044168;28;20176;-80
2023/01/08 12:54:34;;;;;;;4.97;2.50;;;;;;;;;;5044184;28;20108;-80
2023/01/08 12:57:09;;;;;;;6.10;3.22;;;;;;;;;;5045444;28;20032;-79
2023/01/08 12:59:35;;;;;;;12.77;3.45;;;;;;;;;;5018786;28;20037;-79
2023/01/08 13:02:03;;;;;;;8.93;5.20;;;;;;;;;;5049206;28;20473;-79
2023/01/08 13:04:38;;;;;;;8.32;4.20;;;;;;;;;;5039009;28;20033;-79
2023/01/08 13:07:05;;;;;;;9.18;5.32;;;;;;;;;;5044075;28;20037;-79
2023/01/08 13:09:31;;;;;;;11.57;6.43;;;;;;;;;;5040480;28;20029;-79
2023/01/08 13:11:58;;;;;;;8.35;5.57;;;;;;;;;;5033080;28;20036;-79
2023/01/08 13:14:25;;;;;;;4.70;2.10;;;;;;;;;;5043566;28;20033;-79
2023/01/08 13:17:04;;;;;;;3.63;1.50;;;;;;;;;;5046724;28;20035;-78
2023/01/08 13:19:42;;;;;;;3.08;1.27;;;;;;;;;;5041858;28;20034;-78
2023/01/08 13:22:21;;;;;;;4.90;1.85;;;;;;;;;;5041111;28;20033;-78
2023/01/08 13:24:47;;;;;;;3.33;1.38;;;;;;;;;;5046359;28;20037;-78
2023/01/08 13:27:19;;;;;;;4.53;1.83;;;;;;;;;;5039013;28;20090;-80
2023/01/08 13:29:47;;;;;;;10.27;6.65;;;;;;;;;;5033281;28;20052;-79
2023/01/08 13:32:32;;;;;;;6.75;2.75;;;;;;;;;;5051300;28;20029;-81
2023/01/08 13:35:16;;;;;;;5.10;2.80;;;;;;;;;;5039094;28;20041;-79
2023/01/08 13:37:43;;;;;;;7.95;4.32;;;;;;;;;;5037013;28;20029;-79
2023/01/08 13:40:27;;;;;;;7.07;3.97;;;;;;;;;;5046785;28;20100;-79
2023/01/08 13:42:54;;;;;;;10.38;6.20;;;;;;;;;;5038624;28;20048;-77
2023/01/08 13:45:20;;;;;;;10.77;5.18;;;;;;;;;;5040482;28;20488;-78
2023/01/08 13:47:46;;;;;;;8.45;5.47;;;;;;;;;;5043012;28;20022;-79
2023/01/08 13:50:17;;;;;;;11.18;6.55;;;;;;;;;;5046180;28;20150;-79
2023/01/08 13:52:56;;;;;;;11.55;7.22;;;;;;;;;;5054180;28;20029;-79
2023/01/08 13:55:37;;;;;;;10.88;6.68;;;;;;;;;;5051459;28;20026;-79
2023/01/08 13:58:23;;;;;;;9.75;5.55;;;;;;;;;;5021854;28;20029;-79
2023/01/08 14:00:51;;;;;;;11.70;7.40;;;;;;;;;;5067303;28;20041;-79
2023/01/08 14:03:27;;;;;;;10.77;6.90;;;;;;;;;;5052312;28;20033;-79
2023/01/08 14:06:14;;;;;;;11.93;3.20;;;;;;;;;;5047646;28;20056;-79
2023/01/08 14:08:57;;;;;;;9.63;5.07;;;;;;;;;;5041348;28;20073;-78
2023/01/08 14:11:24;;;;;;;4.88;2.35;;;;;;;;;;5046313;28;20029;-79
2023/01/08 14:13:50;;;;;;;2.92;1.45;;;;;;;;;;5045290;28;20034;-79
2023/01/08 14:16:17;;;;;;;7.75;3.47;;;;;;;;;;5046567;28;20051;-79
2023/01/08 14:18:43;;;;;;;3.15;1.50;;;;;;;;;;5045055;28;20029;-78
2023/01/08 14:21:10;;;;;;;6.82;3.30;;;;;;;;;;5043307;28;20029;-78
2023/01/08 14:23:39;;;;;;;4.72;2.05;;;;;;;;;;5042568;28;20495;-79
2023/01/08 14:26:07;;;;;;;7.05;3.35;;;;;;;;;;5041959;28;20036;-78
2023/01/08 14:28:33;;;;;;;5.05;2.90;;;;;;;;;;5035759;28;20037;-79
2023/01/08 14:30:59;;;;;;;8.15;4.00;;;;;;;;;;5017788;28;20083;-79
2023/01/08 14:33:31;;;;;;;9.02;4.43;;;;;;;;;;5027639;28;20037;-78
2023/01/08 14:35:58;;;;;;;11.85;6.30;;;;;;;;;;5049265;28;20029;-79
2023/01/08 14:38:24;;;;;;;10.63;6.38;;;;;;;;;;5039769;28;20060;-80
2023/01/08 14:40:57;;;;;;;9.65;6.80;;;;;;;;;;5035472;28;20030;-79
2023/01/08 14:43:24;;;;;;;9.63;6.13;;;;;;;;;;5052148;28;20079;-79